• Join FlightAware (Why Join?)
  • Login
  • US Flag 
09:58PM EST


 

Airport Tracker/Info


-or-


 

Live Flight TrackerFlight Track Log ✈ SWA34 ✈ 29-Apr-2013 ✈ KJAX - KORF

Flight Track Log - Related Links

Times and Time Zones

All times are in EDT time to prevent confusion due to time zone crossing. See the SWA34 flight status page for this flight to view local times or setup timezone preferences in your user account.

Time Position Orientation Groundspeed Altitude Reporting Facility
EDT Latitude Longitude Course Direction KTS MPH feet Rate Location/Type
08:31AM 30.5003 -81.6317 83° East 223 257 3,200  Level Jacksonville Center
08:32AM 30.5756 -81.6211 North 239 275 6,100 3,000 Climbing Jacksonville Center
08:33AM 30.6567 -81.6103 North 256 295 9,300 2,580 Climbing Jacksonville Center
08:34AM 30.7444 -81.5969 North 291 335 11,300 2,220 Climbing Jacksonville Center
08:35AM 30.8422 -81.5836 North 327 376 13,800 2,700 Climbing Jacksonville Center
08:36AM 30.9464 -81.5531 14° North 361 415 16,700 2,460 Climbing Jacksonville Center
08:37AM 31.0506 -81.5250 13° North 378 435 18,800 2,100 Climbing Jacksonville Center
08:38AM 31.1608 -81.4942 13° North 384 442 21,000 2,100 Climbing Jacksonville Center
08:39AM 31.2711 -81.4608 14° North 395 455 23,000 1,920 Climbing Jacksonville Center
08:40AM 31.3833 -81.4253 15° North 406 467 24,900 1,800 Climbing Jacksonville Center
08:41AM 31.5103 -81.3792 17° North 423 487 26,700 1,500 Climbing Jacksonville Center
08:42AM 31.6094 -81.2922 37° Northeast 436 502 27,900 1,200 Climbing Jacksonville Center
08:43AM 31.7106 -81.1953 39° Northeast 459 528 29,200 1,320 Climbing Jacksonville Center
08:44AM 31.8114 -81.1006 39° Northeast 465 535 30,600 1,500 Climbing Jacksonville Center
08:45AM 31.9000 -81.0133 40° Northeast 465 535 32,200 1,560 Climbing Jacksonville Center
08:46AM 32.0133 -80.9106 38° Northeast 465 535 33,800 1,380 Climbing Jacksonville Center
08:47AM 32.1017 -80.8250 39° Northeast 465 535 35,000 1,200 Climbing Jacksonville Center
08:48AM 32.1981 -80.7297 40° Northeast 459 528 36,200 960 Climbing Jacksonville Center
08:49AM 32.2967 -80.6364 39° Northeast 454 522 37,000 360 Climbing Jacksonville Center
08:50AM 32.3953 -80.5431 39° Northeast 454 522 37,000  Level Jacksonville Center
08:51AM 32.4936 -80.4467 40° Northeast 454 522 37,000  Level Jacksonville Center
08:52AM 32.5919 -80.3506 39° Northeast 454 522 37,000  Level Jacksonville Center
08:53AM 32.6903 -80.2564 39° Northeast 454 522 37,000  Level Jacksonville Center
08:54AM 32.7883 -80.1597 40° Northeast 454 522 37,000  Level Jacksonville Center
08:55AM 32.8864 -80.0628 40° Northeast 454 522 37,000  Level Jacksonville Center
08:56AM 32.9906 -79.9603 40° Northeast 460 529 37,000  Level Jacksonville Center
08:57AM 33.0886 -79.8678 38° Northeast 460 529 37,000  Level Jacksonville Center
08:58AM 33.1883 -79.7703 39° Northeast 460 529 37,000  Level Jacksonville Center
08:59AM 33.2881 -79.6697 40° Northeast 460 529 37,000  Level Jacksonville Center
09:00AM 33.3878 -79.5717 39° Northeast 460 529 37,000  Level Jacksonville Center
09:01AM 33.4875 -79.4733 39° Northeast 460 529 37,000  Level Jacksonville Center
09:02AM 33.5869 -79.3722 40° Northeast 460 529 37,000 -600 Level Jacksonville Center
09:04AM 33.7736 -79.1864 40° Northeast 458 527 35,300 -720 Descending Washington Center
09:05AM 33.8747 -79.0833 40° Northeast 464 534 35,000 -180 Descending Washington Center
09:06AM 33.9736 -78.9847 40° Northeast 464 534 35,000  Level Washington Center
09:07AM 34.0764 -78.8839 39° Northeast 464 534 35,000  Level Washington Center
09:08AM 34.1794 -78.7800 40° Northeast 464 534 35,000 -60 Level Washington Center
09:09AM 34.2822 -78.6783 39° Northeast 469 540 34,900 -60 Descending Washington Center
09:10AM 34.3850 -78.5717 41° Northeast 469 540 34,900 -360 Level Washington Center
09:11AM 34.4939 -78.4797 35° Northeast 474 545 34,200 -840 Descending Washington Center
09:12AM 34.6022 -78.3903 34° Northeast 480 552 33,300 -1,020 Descending Washington Center
09:13AM 34.7108 -78.3031 33° Northeast 470 541 32,200 -960 Descending Washington Center
09:14AM 34.7958 -78.2275 36° Northeast 470 541 31,400 -900 Descending Washington Center
09:15AM 34.9128 -78.1222 36° Northeast 470 541 30,500 -960 Descending Washington Center
09:16AM 35.0192 -78.0344 34° Northeast 470 541 29,500 -960 Descending Washington Center
09:17AM 35.1294 -77.9436 34° Northeast 470 541 28,600 -1,020 Descending Washington Center
09:18AM 35.2356 -77.8503 36° Northeast 470 541 27,600 -960 Descending Washington Center
09:19AM 35.3414 -77.7614 34° Northeast 470 541 26,700 -1,080 Descending Washington Center
09:20AM 35.4600 -77.6628 34° Northeast 475 547 25,500 -1,140 Descending Washington Center
09:21AM 35.5658 -77.5733 34° Northeast 470 541 24,500 -960 Descending Washington Center
09:22AM 35.6697 -77.4814 36° Northeast 464 534 23,600 -960 Descending Washington Center
09:23AM 35.7711 -77.3969 34° Northeast 453 521 22,600 -1,080 Descending Washington Center
09:24AM 35.8725 -77.3119 34° Northeast 448 516 21,500 -840 Descending Washington Center
09:25AM 35.9717 -77.2269 35° Northeast 439 505 21,000 -300 Descending Washington Center
09:26AM 36.0667 -77.1442 35° Northeast 433 498 21,000 -660 Level Washington Center
09:27AM 36.1469 -77.0711 36° Northeast 421 484 19,800 -1,680 Descending Washington Center
09:28AM 36.2417 -76.9931 34° Northeast 393 452 17,800 -2,040 Descending Washington Center
09:29AM 36.3219 -76.9169 37° Northeast 392 451 15,800 -2,100 Descending Washington Center
09:29AM 36.3533 -76.8919 33° Northeast 380 437 15,100 -2,040 Descending Washington Center
09:30AM 36.4019 -76.8358 43° Northeast 379 436 13,800 -2,040 Descending Washington Center
09:30AM 36.4275 -76.8078 41° Northeast 353 406 13,100 -1,800 Descending Washington Center
09:31AM 36.4656 -76.7464 52° Northeast 355 409 12,000 -1,740 Descending Washington Center
09:32AM 36.4978 -76.6408 69° East 335 386 10,100 -2,280 Descending Washington Center
09:32AM 36.5231 -76.6078 46° Northeast 323 372 8,900 -2,220 Descending Washington Center
09:33AM 36.5589 -76.5642 44° Northeast 324 373 7,900 -2,160 Descending Washington Center
09:33AM 36.5819 -76.5411 39° Northeast 314 361 7,000 -2,220 Descending Washington Center
09:34AM 36.6222 -76.4900 46° Northeast 312 359 5,800 -1,980 Descending Washington Center
09:34AM 36.6431 -76.4669 42° Northeast 301 346 4,900 -1,920 Descending Washington Center
09:35AM 36.6831 -76.4181 44° Northeast 302 348 3,900 -1,740 Descending Washington Center
09:35AM 36.7167 -76.3822 41° Northeast 292 336 2,900 -1,620 Descending Washington Center
09:36AM 36.7378 -76.3514 49° Northeast 290 334 2,300 -900 Descending Washington Center
09:36AM 36.7692 -76.3256 33° Northeast 261 300 2,100 -240 Descending Washington Center
09:37AM 36.7967 -76.2975 39° Northeast 277 319 2,100 -300 Level Washington Center
09:37AM 36.8197 -76.2769 36° Northeast 214 246 1,800 -960 Descending Washington Center
09:38AM 36.8572 -76.2408 38° Northeast 152 175 800 -1,020 Descending Washington Center